createdAt,value
2018-12-23T11:43:02.548Z,15.59
2018-12-23T11:45:33.861Z,15.66
2018-12-23T11:48:04.363Z,15.93
2018-12-23T11:50:33.886Z,15.29
2018-12-23T11:53:06.192Z,15.37
2018-12-23T11:55:35.721Z,15.74
2018-12-23T11:58:07.008Z,15.93
2018-12-23T12:00:39.780Z,15.26
2018-12-23T12:03:11.089Z,15.31
2018-12-23T12:05:40.613Z,15.07
2018-12-23T12:08:10.715Z,14.77
2018-12-23T12:10:40.330Z,14.78
2018-12-23T12:13:18.982Z,15.20
2018-12-23T12:15:54.704Z,15.08
2018-12-23T12:18:25.962Z,15.22
2018-12-23T12:20:55.682Z,15.58
2018-12-23T12:23:25.290Z,15.31
2018-12-23T12:25:55.482Z,15.05
2018-12-23T12:28:26.050Z,15.21
2018-12-23T12:31:03.704Z,15.19
2018-12-23T12:33:33.287Z,15.64
2018-12-23T12:36:07.604Z,15.29
2018-12-23T12:38:37.810Z,15.09
2018-12-23T12:41:07.897Z,15.08
2018-12-23T12:43:39.438Z,15.07
2018-12-23T12:46:12.952Z,15.10
2018-12-23T12:48:44.184Z,14.79
2018-12-23T12:51:18.036Z,15.00
2018-12-23T12:53:49.239Z,14.74
2018-12-23T12:56:21.249Z,15.23
2018-12-23T12:58:50.789Z,15.19
2018-12-23T13:01:22.825Z,15.11
2018-12-23T13:03:54.302Z,14.48
2018-12-23T13:06:24.182Z,14.36
2018-12-23T13:09:00.489Z,14.76
2018-12-23T13:11:27.758Z,14.27
2018-12-23T13:13:58.026Z,14.61
2018-12-23T13:16:30.149Z,15.08
2018-12-23T13:18:59.744Z,15.22
2018-12-23T13:21:31.429Z,15.16
2018-12-23T13:24:04.223Z,14.81
2018-12-23T13:26:34.006Z,14.65
2018-12-23T13:29:04.153Z,15.11
2018-12-23T13:31:36.920Z,15.10
2018-12-23T13:34:12.015Z,15.25
2018-12-23T13:36:45.623Z,14.90
2018-12-23T13:39:16.702Z,15.01
2018-12-23T13:41:52.119Z,14.85
2018-12-23T13:44:51.709Z,15.15
2018-12-23T13:47:36.313Z,15.53
2018-12-23T13:50:29.881Z,15.37
2018-12-23T13:53:12.836Z,15.84
2018-12-23T13:55:53.717Z,15.98
2018-12-23T13:58:49.163Z,16.24
2018-12-23T14:01:30.921Z,16.35
2018-12-23T14:04:17.383Z,16.45
2018-12-23T14:06:52.369Z,16.37
2018-12-23T14:09:47.283Z,16.45
2018-12-23T14:12:20.341Z,16.48
2018-12-23T14:14:51.110Z,16.84
2018-12-23T14:17:20.718Z,16.87
2018-12-23T14:20:02.018Z,15.90
2018-12-23T14:22:34.654Z,16.19
2018-12-23T14:25:04.243Z,16.71
2018-12-23T14:27:33.797Z,16.61
2018-12-23T14:30:07.053Z,16.50
2018-12-23T14:32:36.796Z,15.74
2018-12-23T14:35:06.939Z,15.77
2018-12-23T14:37:37.924Z,15.76
2018-12-23T14:40:08.070Z,15.66
2018-12-23T14:42:51.982Z,15.54
2018-12-23T14:45:23.642Z,15.65
2018-12-23T14:47:53.350Z,15.67
2018-12-23T14:50:24.800Z,15.51
2018-12-23T14:52:58.963Z,15.65
2018-12-23T14:55:30.204Z,15.16
2018-12-23T14:58:03.230Z,15.41
2018-12-23T15:00:32.842Z,15.39
2018-12-23T15:03:02.434Z,15.41
2018-12-23T15:05:36.934Z,15.32
2018-12-23T15:08:10.675Z,15.13
2018-12-23T15:10:45.019Z,15.01
2018-12-23T15:13:18.708Z,14.92
2018-12-23T15:15:50.030Z,14.91
2018-12-23T15:18:21.938Z,14.69
2018-12-23T15:20:51.772Z,14.55
2018-12-23T15:23:23.100Z,14.42
2018-12-23T15:25:52.638Z,14.71
2018-12-23T15:28:34.369Z,14.92
2018-12-23T15:31:12.993Z,14.91
2018-12-23T15:33:42.766Z,14.25
2018-12-23T15:36:15.475Z,14.06
2018-12-23T15:38:44.960Z,14.12
2018-12-23T15:41:15.241Z,14.75
2018-12-23T15:43:46.999Z,14.78
2018-12-23T15:46:20.352Z,14.94
2018-12-23T15:48:51.734Z,14.59
2018-12-23T15:51:21.663Z,14.48
2018-12-23T15:53:54.810Z,14.43
2018-12-23T15:56:24.452Z,14.41
2018-12-23T15:58:54.184Z,14.68
2018-12-23T16:01:23.925Z,15.35
2018-12-23T16:03:56.371Z,15.54
2018-12-23T16:06:28.984Z,14.77
2018-12-23T16:09:00.047Z,14.58
2018-12-23T16:11:29.928Z,14.70
2018-12-23T16:13:59.502Z,14.81
2018-12-23T16:16:31.037Z,14.83
2018-12-23T16:19:02.139Z,15.15
2018-12-23T16:21:34.699Z,15.44
2018-12-23T16:24:04.311Z,15.03
2018-12-23T16:26:34.353Z,14.77
2018-12-23T16:29:06.927Z,14.76
2018-12-23T16:31:40.418Z,15.06
2018-12-23T16:34:10.024Z,15.22
2018-12-23T16:36:42.401Z,15.36
2018-12-23T16:39:12.504Z,15.26
2018-12-23T16:41:43.366Z,14.84
2018-12-23T16:44:13.088Z,14.83
2018-12-23T16:46:49.332Z,14.82
2018-12-23T16:49:21.070Z,14.63
2018-12-23T16:51:52.485Z,14.59
2018-12-23T16:54:22.253Z,15.32
2018-12-23T16:56:51.856Z,15.36
2018-12-23T16:59:21.874Z,13.32
2018-12-23T17:01:54.802Z,14.95
2018-12-23T17:04:27.230Z,16.08
2018-12-23T17:06:58.408Z,16.18
2018-12-23T17:09:32.137Z,14.78
2018-12-23T17:12:01.764Z,15.99
2018-12-23T17:14:31.332Z,16.88
2018-12-23T17:17:03.841Z,16.60
2018-12-23T17:19:33.498Z,16.06
2018-12-23T17:22:03.090Z,16.90
2018-12-23T17:24:32.615Z,16.35
2018-12-23T17:27:02.212Z,17.13
2018-12-23T17:29:32.033Z,16.87
2018-12-23T17:32:09.192Z,16.87
2018-12-23T17:34:40.235Z,17.02
2018-12-23T17:37:15.014Z,17.33
2018-12-23T17:39:44.646Z,16.99
2018-12-23T17:42:14.444Z,17.20
2018-12-23T17:44:48.085Z,16.58
2018-12-23T17:47:17.777Z,16.12
2018-12-23T17:49:47.742Z,16.59
2018-12-23T17:52:23.131Z,16.79
2018-12-23T17:54:48.555Z,17.07
2018-12-23T17:57:22.349Z,17.96
2018-12-23T17:59:53.452Z,16.41
2018-12-23T18:02:24.011Z,15.74
2018-12-23T18:05:02.084Z,15.62
2018-12-23T18:07:37.180Z,17.03
2018-12-23T18:10:12.332Z,15.96
2018-12-23T18:19:08.363Z,15.26
2018-12-23T18:21:41.031Z,15.30
2018-12-23T18:24:14.027Z,16.82
2018-12-23T18:26:47.451Z,15.64
2018-12-23T18:29:18.201Z,14.95
2018-12-23T18:31:57.289Z,15.10
2018-12-23T18:34:35.013Z,14.77
2018-12-23T18:37:09.655Z,14.92
2018-12-23T18:39:39.552Z,14.96
2018-12-23T18:42:11.204Z,16.16
2018-12-23T18:44:40.798Z,16.53
2018-12-23T18:47:11.325Z,17.21
2018-12-23T18:49:41.617Z,16.54
2018-12-23T18:52:11.425Z,16.14
2018-12-23T18:54:48.498Z,15.41
2018-12-23T18:57:19.504Z,15.76
2018-12-23T18:59:49.094Z,15.13
2018-12-23T19:02:21.055Z,15.40
2018-12-23T19:04:53.567Z,15.53
2018-12-23T19:07:26.958Z,15.33
2018-12-23T19:09:57.387Z,15.66
2018-12-23T19:13:01.818Z,15.73
2018-12-23T19:15:53.863Z,15.64
2018-12-23T19:18:53.131Z,15.18
2018-12-23T19:21:43.672Z,15.21
2018-12-23T19:24:18.891Z,15.39
2018-12-23T19:27:14.240Z,14.77
2018-12-23T19:30:22.810Z,15.13
2018-12-23T19:32:55.286Z,14.91
2018-12-23T19:35:55.960Z,15.32
2018-12-23T19:38:43.042Z,15.39
2018-12-23T19:41:20.594Z,15.73
2018-12-23T19:44:08.260Z,15.81
2018-12-23T19:47:02.444Z,14.97
2018-12-23T19:49:39.493Z,15.21
2018-12-23T19:52:41.397Z,15.59
2018-12-23T19:55:21.095Z,15.20
2018-12-23T19:58:15.154Z,14.90
2018-12-23T20:00:53.890Z,14.54
2018-12-23T20:03:50.811Z,14.42
2018-12-23T20:06:47.697Z,14.04
2018-12-23T20:09:29.337Z,13.24
2018-12-23T20:12:23.106Z,13.53
2018-12-23T20:15:07.031Z,14.15
2018-12-23T20:17:49.138Z,13.94
2018-12-23T20:20:37.166Z,14.49
2018-12-23T20:23:25.621Z,14.10
2018-12-23T20:26:10.222Z,14.29
2018-12-23T20:29:03.975Z,14.10
2018-12-23T20:31:48.324Z,14.73
2018-12-23T20:34:30.523Z,14.62
2018-12-23T20:37:29.940Z,14.36
2018-12-23T20:40:18.905Z,14.54
2018-12-23T20:43:14.142Z,15.55
2018-12-23T20:46:07.664Z,15.84
2018-12-23T20:49:07.331Z,15.81
2018-12-23T20:51:46.114Z,15.72
2018-12-23T20:54:30.873Z,14.33
2018-12-23T20:57:13.581Z,15.23
2018-12-23T20:59:52.322Z,15.60
2018-12-23T21:02:49.481Z,15.89
2018-12-23T21:05:39.836Z,15.13
2018-12-23T21:08:18.779Z,13.73
2018-12-23T21:11:15.797Z,15.18
2018-12-23T21:14:02.230Z,15.84
2018-12-23T21:16:44.171Z,15.24
2018-12-23T21:19:33.603Z,14.97
2018-12-23T21:22:06.308Z,14.71
2018-12-23T21:24:52.280Z,14.74
2018-12-23T21:27:37.040Z,14.55
2018-12-23T21:30:19.926Z,14.68
2018-12-23T21:33:09.294Z,12.92
2018-12-23T21:36:04.079Z,12.33
2018-12-23T21:38:56.216Z,13.84
2018-12-23T21:42:35.475Z,13.98
2018-12-23T21:45:23.359Z,15.24
2018-12-23T21:47:58.859Z,15.35
2018-12-23T21:50:53.212Z,14.82
2018-12-23T21:53:42.283Z,14.27
2018-12-23T21:56:25.753Z,14.42
2018-12-23T21:59:07.430Z,14.40
2018-12-23T22:02:08.813Z,13.99
2018-12-23T22:04:48.919Z,13.21
2018-12-23T22:07:50.464Z,13.83
2018-12-23T22:10:25.990Z,13.49
2018-12-23T22:13:29.068Z,14.11
2018-12-23T22:16:01.049Z,14.50
2018-12-23T22:18:32.106Z,15.19
2018-12-23T22:21:02.123Z,14.93
2018-12-23T22:23:32.191Z,14.57
2018-12-23T22:26:06.133Z,14.70
2018-12-23T22:28:36.653Z,14.37
2018-12-23T22:31:06.304Z,14.21
2018-12-23T22:33:36.076Z,14.45
2018-12-23T22:36:07.088Z,14.59
2018-12-23T22:38:36.819Z,14.45
2018-12-23T22:41:07.474Z,14.22
2018-12-23T22:43:39.583Z,14.88
2018-12-23T22:46:09.487Z,14.00
2018-12-23T22:48:39.453Z,13.37
2018-12-23T22:51:09.050Z,13.87
2018-12-23T22:53:41.337Z,13.89
2018-12-23T22:56:29.801Z,12.93
2018-12-23T22:59:14.198Z,12.53
2018-12-23T23:01:46.142Z,12.30
2018-12-23T23:04:15.824Z,12.03
2018-12-23T23:06:45.659Z,11.74
2018-12-23T23:09:15.536Z,12.11
2018-12-23T23:11:49.952Z,10.20
2018-12-23T23:14:25.194Z,9.45
2018-12-23T23:16:54.772Z,8.81
2018-12-23T23:19:24.367Z,8.45
2018-12-23T23:21:55.549Z,8.21
2018-12-23T23:24:26.706Z,8.62
2018-12-23T23:26:58.133Z,9.08
2018-12-23T23:29:32.734Z,8.46
2018-12-23T23:32:02.645Z,8.32
2018-12-23T23:34:32.159Z,11.14
2018-12-23T23:37:02.533Z,11.74
2018-12-23T23:39:36.165Z,11.89
2018-12-23T23:42:07.146Z,12.16
2018-12-23T23:44:36.972Z,12.47
2018-12-23T23:47:10.292Z,12.18
2018-12-23T23:49:40.877Z,11.97
2018-12-23T23:52:11.975Z,11.90
2018-12-23T23:54:45.812Z,11.08
2018-12-23T23:57:15.420Z,8.32
2018-12-23T23:59:44.929Z,11.01
